createdAt,value
2022-07-31T00:00:38.961Z,16.79
2022-07-31T00:02:48.003Z,16.75
2022-07-31T00:03:55.628Z,16.68
2022-07-31T00:04:48.299Z,16.64
2022-07-31T00:05:47.966Z,16.63
2022-07-31T00:06:47.990Z,16.64
2022-07-31T00:07:47.850Z,16.63
2022-07-31T00:08:47.840Z,16.60
2022-07-31T00:09:54.025Z,16.56
2022-07-31T00:10:49.187Z,16.50
2022-07-31T00:11:47.779Z,16.46
2022-07-31T00:12:47.776Z,16.43
2022-07-31T00:13:58.073Z,16.42
2022-07-31T00:14:48.819Z,16.38
2022-07-31T00:15:48.159Z,16.33
2022-07-31T00:16:47.730Z,16.30
2022-07-31T00:17:47.722Z,16.25
2022-07-31T00:18:47.698Z,16.24
2022-07-31T00:19:47.689Z,16.23
2022-07-31T00:20:47.708Z,16.23
2022-07-31T00:21:48.097Z,16.23
2022-07-31T00:22:47.683Z,16.23
2022-07-31T00:23:49.212Z,16.25
2022-07-31T00:24:47.633Z,16.28
2022-07-31T00:25:48.174Z,16.31
2022-07-31T00:26:47.958Z,16.33
2022-07-31T00:27:48.559Z,16.38
2022-07-31T00:28:47.596Z,16.41
2022-07-31T00:29:47.532Z,16.42
2022-07-31T00:30:47.526Z,16.43
2022-07-31T00:31:48.017Z,16.39
2022-07-31T00:32:48.900Z,16.28
2022-07-31T00:33:47.513Z,16.21
2022-07-31T00:34:47.500Z,16.21
2022-07-31T00:35:47.487Z,16.17
2022-07-31T00:36:51.624Z,16.14
2022-07-31T00:37:47.540Z,16.12
2022-07-31T00:38:47.510Z,16.09
2022-07-31T00:39:47.432Z,16.08
2022-07-31T00:40:47.414Z,16.09
2022-07-31T00:41:47.784Z,16.07
2022-07-31T00:42:47.415Z,16.05
2022-07-31T00:43:47.365Z,16.04
2022-07-31T00:44:47.859Z,16.05
2022-07-31T00:45:47.325Z,16.02
2022-07-31T00:46:48.734Z,16.04
2022-07-31T00:47:47.301Z,16.04
2022-07-31T00:48:47.789Z,16.05
2022-07-31T00:49:51.256Z,16.04
2022-07-31T00:50:47.275Z,16.04
2022-07-31T00:51:47.603Z,16.04
2022-07-31T00:52:47.244Z,16.04
2022-07-31T00:53:47.227Z,16.05
2022-07-31T00:54:47.210Z,16.07
2022-07-31T00:55:51.260Z,16.07
2022-07-31T00:56:47.194Z,16.08
2022-07-31T00:57:47.935Z,16.09
2022-07-31T00:58:47.192Z,16.11
2022-07-31T00:59:47.170Z,16.12
2022-07-31T01:00:47.155Z,16.14
2022-07-31T01:01:47.122Z,16.15
2022-07-31T01:02:47.141Z,16.17
2022-07-31T01:03:47.570Z,16.20
2022-07-31T01:04:54.764Z,16.15
2022-07-31T01:05:47.072Z,16.15
2022-07-31T01:06:47.068Z,16.14
2022-07-31T01:07:50.921Z,16.17
2022-07-31T01:08:47.489Z,16.15
2022-07-31T01:09:47.019Z,16.17
2022-07-31T01:10:54.341Z,16.17
2022-07-31T01:11:47.006Z,16.21
2022-07-31T01:12:50.970Z,16.21
2022-07-31T01:13:49.271Z,16.21
2022-07-31T01:14:54.990Z,16.21
2022-07-31T01:15:46.939Z,16.15
2022-07-31T01:16:46.939Z,16.17
2022-07-31T01:17:46.930Z,16.15
2022-07-31T01:18:46.879Z,16.15
2022-07-31T01:19:47.240Z,16.14
2022-07-31T01:20:46.860Z,16.12
2022-07-31T01:21:46.847Z,16.09
2022-07-31T01:22:46.866Z,16.07
2022-07-31T01:23:51.082Z,16.07
2022-07-31T01:24:48.260Z,16.04
2022-07-31T01:25:46.818Z,16.02
2022-07-31T01:26:46.828Z,16.00
2022-07-31T01:27:49.542Z,15.97
2022-07-31T01:28:46.776Z,15.94
2022-07-31T01:29:47.117Z,15.96
2022-07-31T01:30:46.727Z,15.93
2022-07-31T01:31:46.724Z,15.93
2022-07-31T01:32:46.729Z,15.92
2022-07-31T01:33:48.634Z,15.90
2022-07-31T01:34:47.106Z,15.87
2022-07-31T01:35:46.666Z,15.83
2022-07-31T01:36:46.658Z,15.83
2022-07-31T01:37:46.648Z,15.80
2022-07-31T01:38:46.627Z,15.80
2022-07-31T01:39:46.611Z,15.80
2022-07-31T01:40:47.006Z,15.78
2022-07-31T01:41:46.588Z,15.75
2022-07-31T01:42:46.576Z,15.75
2022-07-31T01:43:46.545Z,15.74
2022-07-31T01:44:46.586Z,15.72
2022-07-31T01:45:46.936Z,15.71
2022-07-31T01:46:46.543Z,15.69
2022-07-31T01:47:46.503Z,15.68
2022-07-31T01:48:46.582Z,15.64
2022-07-31T01:49:46.484Z,15.62
2022-07-31T01:50:47.455Z,15.62
2022-07-31T01:51:46.871Z,15.60
2022-07-31T01:52:46.464Z,15.60
2022-07-31T01:53:46.445Z,15.59
2022-07-31T01:54:46.414Z,15.57
2022-07-31T01:56:01.913Z,15.62
2022-07-31T01:56:49.846Z,15.60
2022-07-31T01:57:48.322Z,15.59
2022-07-31T01:58:46.353Z,15.56
2022-07-31T01:59:46.403Z,15.54
2022-07-31T02:00:46.380Z,15.50
2022-07-31T02:01:46.359Z,15.49
2022-07-31T02:02:46.663Z,15.43
2022-07-31T02:03:46.323Z,15.44
2022-07-31T02:04:47.298Z,15.41
2022-07-31T02:05:46.279Z,15.38
2022-07-31T02:06:46.253Z,15.36
2022-07-31T02:07:46.692Z,15.39
2022-07-31T02:08:48.238Z,15.36
2022-07-31T02:09:52.267Z,15.35
2022-07-31T02:10:47.229Z,15.31
2022-07-31T02:11:54.713Z,15.29
2022-07-31T02:12:47.701Z,15.27
2022-07-31T02:13:46.181Z,15.25
2022-07-31T02:14:46.141Z,15.20
2022-07-31T02:15:46.146Z,15.17
2022-07-31T02:16:46.141Z,15.14
2022-07-31T02:17:49.556Z,15.11
2022-07-31T02:18:46.219Z,15.09
2022-07-31T02:19:59.879Z,15.07
2022-07-31T02:20:47.110Z,15.07
2022-07-31T02:21:46.058Z,15.03
2022-07-31T02:22:46.494Z,15.01
2022-07-31T02:23:46.031Z,15.01
2022-07-31T02:24:46.016Z,14.99
2022-07-31T02:25:46.121Z,14.96
2022-07-31T02:26:46.029Z,14.96
2022-07-31T02:27:53.772Z,14.91
2022-07-31T02:28:47.008Z,14.89
2022-07-31T02:29:45.959Z,14.83
2022-07-31T02:30:45.980Z,14.80
2022-07-31T02:31:45.923Z,14.75
2022-07-31T02:32:46.250Z,14.73
2022-07-31T02:33:45.939Z,14.73
2022-07-31T02:34:47.845Z,14.72
2022-07-31T02:35:45.943Z,14.70
2022-07-31T02:36:46.368Z,14.68
2022-07-31T02:37:46.287Z,14.64
2022-07-31T02:38:45.851Z,14.64
2022-07-31T02:39:46.166Z,14.61
2022-07-31T02:40:45.915Z,14.58
2022-07-31T02:41:46.167Z,14.57
2022-07-31T02:42:46.577Z,14.55
2022-07-31T02:43:49.296Z,14.52
2022-07-31T02:44:45.775Z,14.52
2022-07-31T02:45:45.758Z,14.51
2022-07-31T02:46:46.176Z,14.50
2022-07-31T02:47:45.746Z,14.46
2022-07-31T02:48:45.785Z,14.46
2022-07-31T02:49:46.014Z,14.47
2022-07-31T02:50:45.693Z,14.52
2022-07-31T02:51:46.105Z,14.54
2022-07-31T02:52:47.968Z,14.55
2022-07-31T02:53:45.646Z,14.57
2022-07-31T02:54:45.951Z,14.57
2022-07-31T02:55:45.621Z,14.58
2022-07-31T02:56:46.081Z,14.61
2022-07-31T02:57:45.605Z,14.61
2022-07-31T02:58:45.602Z,14.61
2022-07-31T02:59:45.574Z,14.60
2022-07-31T03:00:45.628Z,14.55
2022-07-31T03:01:45.971Z,14.55
2022-07-31T03:02:45.603Z,14.54
2022-07-31T03:03:45.519Z,14.52
2022-07-31T03:04:45.494Z,14.51
2022-07-31T03:05:45.921Z,14.51
2022-07-31T03:06:45.922Z,14.51
2022-07-31T03:07:45.472Z,14.51
2022-07-31T03:08:45.461Z,14.51
2022-07-31T03:09:45.484Z,14.52
2022-07-31T03:10:45.591Z,14.51
2022-07-31T03:11:45.853Z,14.51
2022-07-31T03:12:45.438Z,14.52
2022-07-31T03:13:49.342Z,14.52
2022-07-31T03:15:06.402Z,14.52
2022-07-31T03:15:50.311Z,14.50
2022-07-31T03:16:46.351Z,14.51
2022-07-31T03:17:45.362Z,14.51
2022-07-31T03:18:45.321Z,14.50
2022-07-31T03:19:45.333Z,14.51
2022-07-31T03:20:45.710Z,14.51
2022-07-31T03:21:45.304Z,14.51
2022-07-31T03:22:45.316Z,14.52
2022-07-31T03:23:45.281Z,14.55
2022-07-31T03:24:45.300Z,14.58
2022-07-31T03:25:45.609Z,14.58
2022-07-31T03:26:45.222Z,14.61
2022-07-31T03:27:45.268Z,14.65
2022-07-31T03:28:46.248Z,14.64
2022-07-31T03:29:45.189Z,14.62
2022-07-31T03:30:45.486Z,14.61
2022-07-31T03:31:45.168Z,14.61
2022-07-31T03:32:45.155Z,14.58
2022-07-31T03:33:45.157Z,14.57
2022-07-31T03:34:45.996Z,14.57
2022-07-31T03:35:45.565Z,14.55
2022-07-31T03:36:45.097Z,14.55
2022-07-31T03:37:45.095Z,14.52
2022-07-31T03:38:50.124Z,14.52
2022-07-31T03:39:46.037Z,14.52
2022-07-31T03:40:45.405Z,14.51
2022-07-31T03:41:45.046Z,14.51
2022-07-31T03:42:45.004Z,14.50
2022-07-31T03:43:47.792Z,14.50
2022-07-31T03:44:45.427Z,14.50
2022-07-31T03:45:44.969Z,14.47
2022-07-31T03:46:44.974Z,14.45
2022-07-31T03:47:44.966Z,14.43
2022-07-31T03:48:45.013Z,14.42
2022-07-31T03:49:45.252Z,14.40
2022-07-31T03:50:44.916Z,14.39
2022-07-31T03:51:44.887Z,14.39
2022-07-31T03:52:44.893Z,14.37
2022-07-31T03:53:44.854Z,14.36
2022-07-31T03:54:45.160Z,14.36
2022-07-31T03:55:44.853Z,14.36
2022-07-31T03:56:45.354Z,14.35
2022-07-31T03:57:44.804Z,14.36
2022-07-31T03:58:48.010Z,14.37
2022-07-31T03:59:47.999Z,14.35
2022-07-31T04:00:44.783Z,14.33
2022-07-31T04:01:57.513Z,14.35
2022-07-31T04:02:45.807Z,14.36
2022-07-31T04:03:44.735Z,14.35
2022-07-31T04:04:45.185Z,14.33
2022-07-31T04:05:44.733Z,14.33
2022-07-31T04:06:44.690Z,14.33
2022-07-31T04:07:44.662Z,14.29
2022-07-31T04:08:44.677Z,14.28
2022-07-31T04:09:44.984Z,14.27
2022-07-31T04:10:44.642Z,14.27
2022-07-31T04:11:44.620Z,14.29
2022-07-31T04:12:44.611Z,14.29
2022-07-31T04:13:44.618Z,14.36
2022-07-31T04:14:44.951Z,14.36
2022-07-31T04:15:44.652Z,14.39
2022-07-31T04:16:44.571Z,14.39
2022-07-31T04:17:44.810Z,14.39
2022-07-31T04:18:50.658Z,14.43
2022-07-31T04:19:45.534Z,14.45
2022-07-31T04:20:44.506Z,14.50
2022-07-31T04:21:44.488Z,14.52
2022-07-31T04:22:44.479Z,14.55
2022-07-31T04:23:50.094Z,14.58
2022-07-31T04:24:45.500Z,14.61
2022-07-31T04:25:44.452Z,14.64
2022-07-31T04:26:44.416Z,14.69
2022-07-31T04:27:45.635Z,14.75
2022-07-31T04:28:44.855Z,14.81
2022-07-31T04:29:44.418Z,14.89
2022-07-31T04:30:44.385Z,14.94
2022-07-31T04:31:44.375Z,14.98
2022-07-31T04:32:44.348Z,15.01
2022-07-31T04:33:48.284Z,15.03
2022-07-31T04:34:45.748Z,15.07
2022-07-31T04:35:44.324Z,15.11
2022-07-31T04:36:44.285Z,15.16
2022-07-31T04:37:48.512Z,15.17
2022-07-31T04:38:44.276Z,15.17
2022-07-31T04:39:44.249Z,15.21
2022-07-31T04:40:44.595Z,15.23
2022-07-31T04:41:44.361Z,15.27
2022-07-31T04:42:44.255Z,15.29
2022-07-31T04:43:44.225Z,15.29
2022-07-31T04:44:44.365Z,15.34
2022-07-31T04:45:44.185Z,15.35
2022-07-31T04:46:44.526Z,15.36
2022-07-31T04:47:44.168Z,15.39
2022-07-31T04:48:44.138Z,15.39
2022-07-31T04:49:44.167Z,15.43
2022-07-31T04:50:44.136Z,15.47
2022-07-31T04:51:44.414Z,15.54
2022-07-31T04:52:44.113Z,15.56
2022-07-31T04:53:44.127Z,15.64
2022-07-31T04:54:44.164Z,15.69
2022-07-31T04:55:44.034Z,15.75
2022-07-31T04:56:44.040Z,15.82
2022-07-31T04:57:44.486Z,15.90
2022-07-31T04:58:44.013Z,15.97
2022-07-31T04:59:57.992Z,16.08
2022-07-31T05:00:45.007Z,16.15
2022-07-31T05:01:44.103Z,16.27
2022-07-31T05:02:44.312Z,16.38
2022-07-31T05:03:43.969Z,16.49
2022-07-31T05:04:44.001Z,16.53
2022-07-31T05:05:43.940Z,16.67
2022-07-31T05:06:43.917Z,16.76
2022-07-31T05:07:43.902Z,16.82
2022-07-31T05:08:44.213Z,16.93
2022-07-31T05:09:43.871Z,17.01
2022-07-31T05:10:43.841Z,17.11
2022-07-31T05:11:43.830Z,17.18
2022-07-31T05:12:43.840Z,17.30
2022-07-31T05:13:43.831Z,17.40
2022-07-31T05:14:44.234Z,17.51
2022-07-31T05:15:43.794Z,17.58
2022-07-31T05:16:43.789Z,17.66
2022-07-31T05:17:43.759Z,17.77
2022-07-31T05:18:43.771Z,17.84
2022-07-31T05:19:43.734Z,17.95
2022-07-31T05:20:44.189Z,18.07
2022-07-31T05:21:52.891Z,18.15
2022-07-31T05:22:44.730Z,18.27
2022-07-31T05:23:43.710Z,18.35
2022-07-31T05:24:43.696Z,18.44
2022-07-31T05:25:43.662Z,18.44
2022-07-31T05:26:44.078Z,18.48
2022-07-31T05:27:43.648Z,18.50
2022-07-31T05:28:44.621Z,18.52
2022-07-31T05:29:50.755Z,18.62
2022-07-31T05:30:50.792Z,18.66
2022-07-31T05:31:59.754Z,18.65
2022-07-31T05:32:51.760Z,18.70
2022-07-31T05:33:50.756Z,18.76
2022-07-31T05:34:51.016Z,18.88
2022-07-31T05:35:43.589Z,18.99
2022-07-31T05:38:00.894Z,18.94
2022-07-31T05:39:00.578Z,19.02
2022-07-31T05:40:00.548Z,19.19
2022-07-31T05:41:00.565Z,19.29
2022-07-31T05:42:01.548Z,19.40
2022-07-31T05:43:00.499Z,19.41
2022-07-31T05:44:00.498Z,19.47
2022-07-31T05:45:00.486Z,19.61
2022-07-31T05:46:00.466Z,19.68
2022-07-31T05:47:40.084Z,19.76
2022-07-31T05:48:31.081Z,19.69
2022-07-31T05:49:30.106Z,19.74
2022-07-31T05:50:30.067Z,19.74
2022-07-31T05:51:30.421Z,19.71
2022-07-31T05:52:30.043Z,19.71
2022-07-31T05:53:29.998Z,19.69
2022-07-31T05:54:30.056Z,19.69
2022-07-31T05:55:30.143Z,19.63
2022-07-31T05:56:30.361Z,19.62
2022-07-31T05:57:33.567Z,19.61
2022-07-31T05:58:29.929Z,19.63
2022-07-31T05:59:29.929Z,19.66
2022-07-31T06:00:29.921Z,19.63
2022-07-31T06:01:30.378Z,19.66
2022-07-31T06:02:29.933Z,19.68
2022-07-31T06:03:29.899Z,19.65
2022-07-31T06:04:29.927Z,19.62
2022-07-31T06:05:30.306Z,19.65
2022-07-31T06:06:29.870Z,19.65
2022-07-31T06:07:29.835Z,19.68
2022-07-31T06:08:29.869Z,19.71
2022-07-31T06:09:29.818Z,19.68
2022-07-31T06:10:30.175Z,19.63
2022-07-31T06:11:29.808Z,19.61
2022-07-31T06:12:29.748Z,19.61
2022-07-31T06:13:29.764Z,19.61
2022-07-31T06:14:29.791Z,19.65
2022-07-31T06:15:34.387Z,19.73
2022-07-31T06:16:30.772Z,19.77
2022-07-31T06:17:43.725Z,19.84
2022-07-31T06:18:30.742Z,19.95
2022-07-31T06:19:29.717Z,20.03
2022-07-31T06:20:30.178Z,20.11
2022-07-31T06:21:30.974Z,20.17
2022-07-31T06:22:29.619Z,20.24
2022-07-31T06:23:32.358Z,20.33
2022-07-31T06:24:29.627Z,20.47
2022-07-31T06:25:31.798Z,20.43
2022-07-31T06:26:30.635Z,20.52
2022-07-31T06:27:33.328Z,20.59
2022-07-31T06:28:48.119Z,20.62
2022-07-31T06:29:41.687Z,20.64
2022-07-31T06:30:30.567Z,20.64
2022-07-31T06:31:29.547Z,20.67
2022-07-31T06:32:29.508Z,20.64
2022-07-31T06:33:37.089Z,20.64
2022-07-31T06:34:30.510Z,20.70
2022-07-31T06:35:29.808Z,20.72
2022-07-31T06:36:29.476Z,20.76
2022-07-31T06:37:29.435Z,20.76
2022-07-31T06:38:29.428Z,20.79
2022-07-31T06:39:56.128Z,20.79
2022-07-31T06:40:30.416Z,20.74
2022-07-31T06:41:29.414Z,20.76
2022-07-31T06:42:29.395Z,20.74
2022-07-31T06:43:29.367Z,20.72
2022-07-31T06:44:29.673Z,20.70
2022-07-31T06:45:49.583Z,20.73
2022-07-31T06:46:30.357Z,20.73
2022-07-31T06:47:29.316Z,20.82
2022-07-31T06:48:29.313Z,20.87
2022-07-31T06:49:29.707Z,20.85
2022-07-31T06:50:29.294Z,20.89
2022-07-31T06:51:31.189Z,20.94
2022-07-31T06:52:29.246Z,20.97
2022-07-31T06:53:29.227Z,20.94
2022-07-31T06:54:29.684Z,20.97
2022-07-31T06:55:29.215Z,20.98
2022-07-31T06:56:29.226Z,21.13
2022-07-31T06:57:29.219Z,21.29
2022-07-31T06:58:29.227Z,21.47
2022-07-31T06:59:40.571Z,21.50
2022-07-31T07:00:30.135Z,21.53
2022-07-31T07:01:29.172Z,21.54
2022-07-31T07:02:29.126Z,21.65
2022-07-31T07:03:29.097Z,21.74
2022-07-31T07:04:57.348Z,21.88
2022-07-31T07:05:30.082Z,21.99
2022-07-31T07:06:29.074Z,22.10
2022-07-31T07:07:31.553Z,22.18
2022-07-31T07:08:29.055Z,22.22
2022-07-31T07:09:29.390Z,22.33
2022-07-31T07:10:29.084Z,22.40
2022-07-31T07:11:29.027Z,22.51
2022-07-31T07:12:29.075Z,22.57
2022-07-31T07:13:45.597Z,22.67
2022-07-31T07:14:29.966Z,22.70
2022-07-31T07:15:28.956Z,22.85
2022-07-31T07:16:28.943Z,22.95
2022-07-31T07:17:29.364Z,23.04
2022-07-31T07:19:45.660Z,23.12
2022-07-31T07:20:45.056Z,23.23
2022-07-31T07:21:45.062Z,23.27
2022-07-31T07:22:45.173Z,23.31
2022-07-31T07:23:45.624Z,23.25
2022-07-31T07:24:45.080Z,23.25
2022-07-31T07:25:45.026Z,23.17
2022-07-31T07:26:45.021Z,23.22
2022-07-31T07:27:45.023Z,23.33
2022-07-31T07:28:45.296Z,23.42
2022-07-31T07:29:44.966Z,23.63
2022-07-31T07:30:44.946Z,23.79
2022-07-31T07:31:44.929Z,24.25
2022-07-31T07:32:44.917Z,24.45
2022-07-31T07:33:45.346Z,24.39
2022-07-31T07:34:44.898Z,24.53
2022-07-31T07:35:44.856Z,24.64
2022-07-31T07:36:44.850Z,24.83
2022-07-31T07:37:45.174Z,25.10
2022-07-31T07:38:44.842Z,25.52
2022-07-31T07:39:44.826Z,26.13
2022-07-31T07:40:44.777Z,27.03
2022-07-31T07:41:44.812Z,27.31
2022-07-31T07:42:45.147Z,27.44
2022-07-31T07:43:44.762Z,27.21
2022-07-31T07:44:45.797Z,27.02
2022-07-31T07:45:44.744Z,26.81
2022-07-31T07:46:44.740Z,26.60
2022-07-31T07:48:05.598Z,26.57
2022-07-31T07:48:45.769Z,26.57
2022-07-31T07:49:44.667Z,26.47
2022-07-31T07:50:44.727Z,26.54
2022-07-31T07:51:59.443Z,26.52
2022-07-31T07:52:46.125Z,26.37
2022-07-31T07:53:44.666Z,26.35
2022-07-31T07:54:44.664Z,26.37
2022-07-31T07:55:44.886Z,26.50
2022-07-31T07:56:44.727Z,26.62
2022-07-31T07:57:44.961Z,26.70
2022-07-31T07:58:44.547Z,26.75
2022-07-31T07:59:44.562Z,26.72
2022-07-31T08:00:44.596Z,26.77
2022-07-31T08:01:44.575Z,26.77
2022-07-31T08:03:02.837Z,26.50
2022-07-31T08:03:50.658Z,26.12
2022-07-31T08:04:47.605Z,25.92
2022-07-31T08:05:44.536Z,25.87
2022-07-31T08:06:44.894Z,25.97
2022-07-31T08:07:44.477Z,26.09
2022-07-31T08:08:44.502Z,26.07
2022-07-31T08:09:44.483Z,26.20
2022-07-31T08:10:44.407Z,26.40
2022-07-31T08:11:45.207Z,26.73
2022-07-31T08:12:44.387Z,26.82
2022-07-31T08:13:49.340Z,26.84
2022-07-31T08:14:45.411Z,26.89
2022-07-31T08:15:44.371Z,27.02
2022-07-31T08:16:44.908Z,27.24
2022-07-31T08:17:44.363Z,27.27
2022-07-31T08:18:44.325Z,27.17
2022-07-31T08:19:48.232Z,27.12
2022-07-31T08:20:45.296Z,27.17
2022-07-31T08:21:44.647Z,27.14
2022-07-31T08:22:44.304Z,27.10
2022-07-31T08:23:44.259Z,27.09
2022-07-31T08:24:44.336Z,26.84
2022-07-31T08:25:44.303Z,26.72
2022-07-31T08:26:44.658Z,26.72
2022-07-31T08:27:44.230Z,26.72
2022-07-31T08:28:50.606Z,26.84
2022-07-31T08:29:45.216Z,26.87
2022-07-31T08:30:44.198Z,27.06
2022-07-31T08:31:49.495Z,27.25
2022-07-31T08:32:45.178Z,27.46
2022-07-31T08:33:44.177Z,27.29
2022-07-31T08:34:44.197Z,27.36
2022-07-31T08:35:44.725Z,27.43
2022-07-31T08:36:45.757Z,27.47
2022-07-31T08:37:54.353Z,27.69
2022-07-31T08:38:45.391Z,27.69
2022-07-31T08:39:44.077Z,27.66
2022-07-31T08:40:44.348Z,27.66
2022-07-31T08:41:44.079Z,27.62
2022-07-31T08:42:44.050Z,27.57
2022-07-31T08:44:00.503Z,27.63
2022-07-31T08:44:44.990Z,27.82
2022-07-31T08:45:44.418Z,27.87
2022-07-31T08:46:43.980Z,27.66
2022-07-31T08:47:43.980Z,27.09
2022-07-31T08:48:43.985Z,27.04
2022-07-31T08:49:51.142Z,27.21
2022-07-31T08:50:53.993Z,27.40
2022-07-31T08:51:51.223Z,27.43
2022-07-31T08:52:44.947Z,27.77
2022-07-31T08:53:43.923Z,27.81
2022-07-31T08:54:43.949Z,27.78
2022-07-31T08:55:56.741Z,27.81
2022-07-31T08:56:45.061Z,27.81
2022-07-31T08:57:43.848Z,27.57
2022-07-31T08:58:43.834Z,27.60
2022-07-31T08:59:43.813Z,27.65
2022-07-31T09:00:44.163Z,27.51
2022-07-31T09:01:43.869Z,27.54
2022-07-31T09:02:43.823Z,27.67
2022-07-31T09:03:43.819Z,27.81
2022-07-31T09:04:43.768Z,27.81
2022-07-31T09:05:44.086Z,27.87
2022-07-31T09:06:43.736Z,27.96
2022-07-31T09:07:43.703Z,27.97
2022-07-31T09:08:43.713Z,27.75
2022-07-31T09:09:50.963Z,27.34
2022-07-31T09:10:49.696Z,27.19
2022-07-31T09:11:44.713Z,27.22
2022-07-31T09:12:43.765Z,27.34
2022-07-31T09:13:44.406Z,27.51
2022-07-31T09:14:45.072Z,27.63
2022-07-31T09:15:43.708Z,27.74
2022-07-31T09:16:43.623Z,27.67
2022-07-31T09:17:48.758Z,27.75
2022-07-31T09:18:44.639Z,27.79
2022-07-31T09:19:52.237Z,27.67
2022-07-31T09:20:44.584Z,27.70
2022-07-31T09:21:43.575Z,27.75
2022-07-31T09:22:43.566Z,27.69
2022-07-31T09:23:43.543Z,27.59
2022-07-31T09:24:43.656Z,27.25
2022-07-31T09:25:43.802Z,26.85
2022-07-31T09:26:43.514Z,26.63
2022-07-31T09:27:43.494Z,26.29
2022-07-31T09:28:43.463Z,26.09
2022-07-31T09:29:43.458Z,26.07
2022-07-31T09:30:56.521Z,26.18
2022-07-31T09:31:44.713Z,26.28
2022-07-31T09:32:43.457Z,26.44
2022-07-31T09:33:45.799Z,26.60
2022-07-31T09:34:43.383Z,26.72
2022-07-31T09:35:43.455Z,26.67
2022-07-31T09:36:43.845Z,26.48
2022-07-31T09:37:43.381Z,26.45
2022-07-31T09:38:43.389Z,26.48
2022-07-31T09:39:52.050Z,26.57
2022-07-31T09:40:56.954Z,26.69
2022-07-31T09:42:01.158Z,26.80
2022-07-31T09:42:46.094Z,26.88
2022-07-31T09:43:51.455Z,27.04
2022-07-31T09:44:44.283Z,27.17
2022-07-31T09:45:48.507Z,27.22
2022-07-31T09:46:44.253Z,27.32
2022-07-31T09:47:43.626Z,27.39
2022-07-31T09:48:44.075Z,27.50
2022-07-31T09:49:43.195Z,27.57
2022-07-31T09:50:43.505Z,27.44
2022-07-31T09:51:43.302Z,27.36
2022-07-31T09:52:43.220Z,27.40
2022-07-31T09:53:52.902Z,27.17
2022-07-31T09:54:43.123Z,27.00
2022-07-31T09:55:43.123Z,26.85
2022-07-31T09:56:43.204Z,26.76
2022-07-31T09:57:50.064Z,26.75
2022-07-31T09:58:44.117Z,26.85
2022-07-31T09:59:43.060Z,26.85
2022-07-31T10:00:43.088Z,26.87
2022-07-31T10:01:43.040Z,26.95
2022-07-31T10:02:43.517Z,27.12
2022-07-31T10:03:43.032Z,27.29
2022-07-31T10:04:43.163Z,27.41
2022-07-31T10:05:43.013Z,27.40
2022-07-31T10:06:42.964Z,27.55
2022-07-31T10:07:43.006Z,27.78
2022-07-31T10:08:43.415Z,27.96
2022-07-31T10:09:42.993Z,28.17
2022-07-31T10:10:42.945Z,28.11
2022-07-31T10:11:42.904Z,28.12
2022-07-31T10:12:42.939Z,28.12
2022-07-31T10:13:43.353Z,28.11
2022-07-31T10:14:42.885Z,28.22
2022-07-31T10:15:42.885Z,28.39
2022-07-31T10:16:42.941Z,28.51
2022-07-31T10:17:42.853Z,28.49
2022-07-31T10:18:44.561Z,28.55
2022-07-31T10:19:42.804Z,28.52
2022-07-31T10:20:42.823Z,28.55
2022-07-31T10:21:43.074Z,28.71
2022-07-31T10:22:43.193Z,28.78
2022-07-31T10:23:42.797Z,28.89
2022-07-31T10:24:42.898Z,29.06
2022-07-31T10:25:42.744Z,29.21
2022-07-31T10:27:00.289Z,29.37
2022-07-31T10:27:44.955Z,29.41
2022-07-31T10:28:42.714Z,29.48
2022-07-31T10:29:42.699Z,29.57
2022-07-31T10:30:42.666Z,29.64
2022-07-31T10:31:42.756Z,29.65
2022-07-31T10:32:43.096Z,29.78
2022-07-31T10:33:44.400Z,29.78
2022-07-31T10:34:42.651Z,29.79
2022-07-31T10:35:42.674Z,29.82
2022-07-31T10:36:42.596Z,29.94
2022-07-31T10:37:43.056Z,30.01
2022-07-31T10:38:42.650Z,30.08
2022-07-31T10:39:42.565Z,29.98
2022-07-31T10:40:43.134Z,29.92
2022-07-31T10:41:42.577Z,29.73
2022-07-31T10:42:42.969Z,29.73
2022-07-31T10:43:42.625Z,29.82
2022-07-31T10:44:42.501Z,29.86
2022-07-31T10:45:42.484Z,29.76
2022-07-31T10:46:43.235Z,29.76
2022-07-31T10:49:08.300Z,29.48
2022-07-31T10:51:13.707Z,29.68
2022-07-31T10:52:22.746Z,29.94
2022-07-31T10:53:21.832Z,30.19
2022-07-31T10:54:14.519Z,30.46
2022-07-31T10:55:13.590Z,30.08
2022-07-31T10:56:13.457Z,30.16
2022-07-31T10:57:13.823Z,30.22
2022-07-31T10:58:13.424Z,30.24
2022-07-31T10:59:13.432Z,30.54
2022-07-31T11:00:13.439Z,30.89
2022-07-31T11:01:17.400Z,31.12
2022-07-31T11:02:13.701Z,31.38
2022-07-31T11:03:13.380Z,31.69
2022-07-31T11:04:13.642Z,31.92
2022-07-31T11:05:13.410Z,32.11
2022-07-31T11:06:13.960Z,32.30
2022-07-31T11:07:13.341Z,32.32
2022-07-31T11:08:13.610Z,32.18
2022-07-31T11:09:13.706Z,32.04
2022-07-31T11:10:13.310Z,31.76
2022-07-31T11:11:13.740Z,31.86
2022-07-31T11:12:13.285Z,31.78
2022-07-31T11:13:13.302Z,31.43
2022-07-31T11:14:13.371Z,30.89
2022-07-31T11:15:13.450Z,30.83
2022-07-31T11:16:13.699Z,31.04
2022-07-31T11:17:13.190Z,31.07
2022-07-31T11:18:20.188Z,31.01
2022-07-31T11:19:14.160Z,30.92
2022-07-31T11:20:13.212Z,30.88
2022-07-31T11:21:37.005Z,30.91
2022-07-31T11:22:30.681Z,31.06
2022-07-31T11:23:14.131Z,31.25
2022-07-31T11:24:13.109Z,31.21
2022-07-31T11:25:13.143Z,31.32
2022-07-31T11:26:13.533Z,31.46
2022-07-31T11:27:13.080Z,31.63
2022-07-31T11:28:13.047Z,31.69
2022-07-31T11:30:00.249Z,31.66
2022-07-31T11:30:14.125Z,31.62
2022-07-31T11:31:13.458Z,31.72
2022-07-31T11:32:13.056Z,31.31
2022-07-31T11:33:12.988Z,31.09
2022-07-31T11:34:13.002Z,30.94
2022-07-31T11:35:12.960Z,30.84
2022-07-31T11:36:13.398Z,30.77
2022-07-31T11:37:13.004Z,30.62
2022-07-31T11:38:12.955Z,30.42
2022-07-31T11:39:14.263Z,30.16
2022-07-31T11:40:13.282Z,29.95
2022-07-31T11:41:14.291Z,29.97
2022-07-31T11:42:20.007Z,30.00
2022-07-31T11:44:23.216Z,30.23
2022-07-31T11:45:23.490Z,30.24
2022-07-31T11:46:23.083Z,30.39
2022-07-31T11:48:09.763Z,30.61
2022-07-31T11:48:36.012Z,30.75
2022-07-31T11:50:33.929Z,30.70
2022-07-31T11:51:41.607Z,30.65
2022-07-31T11:52:41.583Z,30.53
2022-07-31T11:53:33.230Z,30.51
2022-07-31T11:54:33.223Z,30.67
2022-07-31T11:55:33.655Z,30.75
2022-07-31T11:56:33.201Z,30.76
2022-07-31T11:57:51.774Z,30.77
2022-07-31T11:58:34.169Z,30.92
2022-07-31T11:59:45.921Z,31.04
2022-07-31T12:00:34.564Z,31.13
2022-07-31T12:01:33.117Z,31.07
2022-07-31T12:02:33.165Z,31.09
2022-07-31T12:03:33.171Z,31.06
2022-07-31T12:04:33.281Z,30.95
2022-07-31T12:05:38.404Z,30.94
2022-07-31T12:06:36.344Z,30.97
2022-07-31T12:07:33.063Z,31.12
2022-07-31T12:08:33.018Z,31.09
2022-07-31T12:10:01.423Z,31.20
2022-07-31T12:10:34.115Z,31.13
2022-07-31T12:11:33.435Z,31.16
2022-07-31T12:12:33.116Z,31.25
2022-07-31T12:13:32.974Z,31.31
2022-07-31T12:14:32.947Z,31.26
2022-07-31T12:15:32.973Z,31.07
2022-07-31T12:16:32.933Z,30.89
2022-07-31T12:17:33.366Z,30.75
2022-07-31T12:18:32.890Z,30.86
2022-07-31T12:19:38.641Z,31.14
2022-07-31T12:20:36.207Z,31.21
2022-07-31T12:21:32.855Z,31.21
2022-07-31T12:22:32.845Z,31.09
2022-07-31T12:23:41.207Z,31.26
2022-07-31T12:24:33.825Z,31.38
2022-07-31T12:25:33.004Z,31.43
2022-07-31T12:26:32.837Z,31.43
2022-07-31T12:27:32.795Z,31.47
2022-07-31T12:28:32.795Z,31.28
2022-07-31T12:29:33.135Z,31.26
2022-07-31T12:30:32.762Z,31.20
2022-07-31T12:31:32.769Z,31.31
2022-07-31T12:32:32.736Z,31.32
2022-07-31T12:33:33.075Z,31.43
2022-07-31T12:34:32.768Z,31.69
2022-07-31T12:35:54.471Z,32.04
2022-07-31T12:36:34.224Z,32.08
2022-07-31T12:37:32.709Z,31.93
2022-07-31T12:38:44.817Z,31.86
2022-07-31T12:39:47.455Z,31.58
2022-07-31T12:40:33.636Z,31.28
2022-07-31T12:41:32.665Z,31.21
2022-07-31T12:42:35.290Z,30.94
2022-07-31T12:43:34.063Z,30.76
2022-07-31T12:44:32.614Z,30.62
2022-07-31T12:45:32.548Z,30.62
2022-07-31T12:46:32.576Z,30.76
2022-07-31T12:47:32.625Z,31.09
2022-07-31T12:48:36.625Z,31.31
2022-07-31T12:49:33.640Z,31.41
2022-07-31T12:50:32.503Z,31.44
2022-07-31T12:51:45.987Z,31.46
2022-07-31T12:52:33.545Z,31.32
2022-07-31T12:53:32.467Z,30.94
2022-07-31T12:54:35.447Z,30.80
2022-07-31T12:55:33.884Z,30.88
2022-07-31T12:56:32.466Z,31.02
2022-07-31T12:57:32.406Z,31.28
2022-07-31T12:58:32.395Z,31.41
2022-07-31T12:59:32.386Z,31.41
2022-07-31T13:00:34.824Z,31.25
2022-07-31T13:01:33.914Z,31.23